createdAt,value
2022-12-14T00:01:28.528Z,44.83
2022-12-14T00:03:56.369Z,44.50
2022-12-14T00:06:26.107Z,38.50
2022-12-14T00:08:55.682Z,46.97
2022-12-14T00:11:23.324Z,45.23
2022-12-14T00:14:01.410Z,46.80
2022-12-14T00:16:31.262Z,40.50
2022-12-14T00:18:59.304Z,45.73
2022-12-14T00:21:27.081Z,39.93
2022-12-14T00:23:54.691Z,41.07
2022-12-14T00:26:24.277Z,38.83
2022-12-14T00:28:53.337Z,41.20
2022-12-14T00:31:21.125Z,40.40
2022-12-14T00:33:48.168Z,39.17
2022-12-14T00:36:15.168Z,40.33
2022-12-14T00:38:42.539Z,36.43
2022-12-14T00:41:09.993Z,39.13
2022-12-14T00:43:36.510Z,40.83
2022-12-14T00:46:03.267Z,39.07
2022-12-14T00:48:30.810Z,42.30
2022-12-14T00:50:58.305Z,35.90
2022-12-14T00:53:25.563Z,41.30
2022-12-14T00:55:52.608Z,34.13
2022-12-14T00:58:21.306Z,35.87
2022-12-14T01:00:48.713Z,39.20
2022-12-14T01:03:15.663Z,41.07
2022-12-14T01:05:42.405Z,35.17
2022-12-14T01:08:15.818Z,34.97
2022-12-14T01:10:42.292Z,39.07
2022-12-14T01:13:10.618Z,37.13
2022-12-14T01:15:37.302Z,38.50
2022-12-14T01:18:03.985Z,41.10
2022-12-14T01:20:30.844Z,38.50
2022-12-14T01:22:57.586Z,38.80
2022-12-14T01:25:24.499Z,34.70
2022-12-14T01:27:51.040Z,38.33
2022-12-14T01:30:19.435Z,39.20
2022-12-14T01:32:46.910Z,37.27
2022-12-14T01:35:13.725Z,40.93
2022-12-14T01:37:40.218Z,34.33
2022-12-14T01:40:07.399Z,36.83
2022-12-14T01:42:36.192Z,34.30
2022-12-14T01:45:03.237Z,39.03
2022-12-14T01:47:37.985Z,38.10
2022-12-14T01:53:11.920Z,37.00
2022-12-14T01:55:49.902Z,35.00
2022-12-14T01:58:20.152Z,34.27
2022-12-14T02:00:47.269Z,30.07
2022-12-14T02:03:18.351Z,35.50
2022-12-14T02:05:51.415Z,37.47
2022-12-14T02:08:20.692Z,39.97
2022-12-14T02:10:50.149Z,34.57
2022-12-14T02:13:23.015Z,32.70
2022-12-14T02:15:50.612Z,35.80
2022-12-14T02:18:43.418Z,36.93
2022-12-14T02:21:21.934Z,42.63
2022-12-14T02:24:13.428Z,42.13
2022-12-14T02:27:24.843Z,33.00
2022-12-14T02:29:57.253Z,33.53
2022-12-14T02:32:50.728Z,37.67
2022-12-14T02:35:41.409Z,36.60
2022-12-14T02:38:35.553Z,36.53
2022-12-14T02:41:26.840Z,29.60
2022-12-14T02:44:16.003Z,34.87
2022-12-14T02:47:04.990Z,31.80
2022-12-14T02:49:49.373Z,34.03
2022-12-14T02:52:32.960Z,35.67
2022-12-14T02:55:08.767Z,37.33
2022-12-14T02:57:49.958Z,37.27
2022-12-14T03:00:16.770Z,35.57
2022-12-14T03:02:44.587Z,40.33
2022-12-14T03:05:11.222Z,32.43
2022-12-14T03:07:48.816Z,39.40
2022-12-14T03:10:37.380Z,35.13
2022-12-14T03:13:31.876Z,36.47
2022-12-14T03:16:03.137Z,39.97
2022-12-14T03:18:36.350Z,34.43
2022-12-14T03:21:07.866Z,58.60
2022-12-14T03:23:39.028Z,52.20
2022-12-14T03:26:17.379Z,37.80
2022-12-14T03:28:53.223Z,36.27
2022-12-14T03:31:25.419Z,35.57
2022-12-14T03:33:55.636Z,35.90
2022-12-14T03:36:30.235Z,38.03
2022-12-14T03:39:00.376Z,38.00
2022-12-14T03:41:35.048Z,31.87
2022-12-14T03:44:10.775Z,35.80
2022-12-14T03:47:32.756Z,37.90
2022-12-14T03:50:04.874Z,33.63
2022-12-14T03:53:06.005Z,37.13
2022-12-14T03:56:02.523Z,37.43
2022-12-14T03:59:00.080Z,37.60
2022-12-14T04:01:38.966Z,34.07
2022-12-14T04:04:26.026Z,39.53
2022-12-14T04:07:14.461Z,32.70
2022-12-14T04:10:03.015Z,39.50
2022-12-14T04:12:55.251Z,32.50
2022-12-14T04:15:48.473Z,35.50
2022-12-14T04:18:41.393Z,31.73
2022-12-14T04:21:14.079Z,32.53
2022-12-14T04:24:05.430Z,34.87
2022-12-14T04:26:37.558Z,36.20
2022-12-14T04:29:28.442Z,37.00
2022-12-14T04:32:15.215Z,36.17
2022-12-14T04:34:45.777Z,31.57
2022-12-14T04:37:17.365Z,33.50
2022-12-14T04:39:59.021Z,35.47
2022-12-14T04:42:34.079Z,33.70
2022-12-14T04:45:07.399Z,35.90
2022-12-14T04:47:40.458Z,34.90
2022-12-14T04:50:13.640Z,37.10
2022-12-14T04:52:45.754Z,33.30
2022-12-14T04:55:36.929Z,35.73
2022-12-14T04:58:16.350Z,32.83
2022-12-14T05:00:59.917Z,32.50
2022-12-14T05:03:32.241Z,30.27
2022-12-14T05:06:15.213Z,31.37
2022-12-14T05:09:26.483Z,33.47
2022-12-14T05:12:04.958Z,38.63
2022-12-14T05:14:42.515Z,39.87
2022-12-14T05:17:09.784Z,34.70
2022-12-14T05:19:37.535Z,37.30
2022-12-14T05:22:07.046Z,34.30
2022-12-14T05:24:33.688Z,34.70
2022-12-14T05:27:00.262Z,37.33
2022-12-14T05:29:26.828Z,41.10
2022-12-14T05:31:53.472Z,34.50
2022-12-14T05:34:20.318Z,37.87
2022-12-14T05:36:46.822Z,34.27
2022-12-14T05:39:14.503Z,33.10
2022-12-14T05:41:41.263Z,36.93
2022-12-14T05:44:07.867Z,36.90
2022-12-14T05:46:34.644Z,44.43
2022-12-14T05:49:01.191Z,40.13
2022-12-14T05:51:28.205Z,36.70
2022-12-14T05:53:54.908Z,33.00
2022-12-14T05:56:21.480Z,81.10
2022-12-14T05:58:51.692Z,68.07
2022-12-14T06:01:19.583Z,48.30
2022-12-14T06:03:46.889Z,37.07
2022-12-14T06:06:14.680Z,33.67
2022-12-14T06:08:44.384Z,34.20
2022-12-14T06:11:14.073Z,38.07
2022-12-14T06:13:41.293Z,32.10
2022-12-14T06:16:16.664Z,36.27
2022-12-14T06:18:47.844Z,37.37
2022-12-14T06:21:15.727Z,32.70
2022-12-14T06:23:42.862Z,41.17
2022-12-14T06:26:10.550Z,35.83
2022-12-14T06:28:37.470Z,31.37
2022-12-14T06:31:04.985Z,39.70
2022-12-14T06:33:34.135Z,36.40
2022-12-14T06:36:01.379Z,41.33
2022-12-14T06:38:27.964Z,33.70
2022-12-14T06:40:54.758Z,31.90
2022-12-14T06:43:24.366Z,36.07
2022-12-14T06:45:50.968Z,37.97
2022-12-14T06:48:17.527Z,38.43
2022-12-14T06:50:45.368Z,39.40
2022-12-14T06:53:13.544Z,33.93
2022-12-14T06:55:40.103Z,32.93
2022-12-14T06:58:06.719Z,32.03
2022-12-14T07:00:33.467Z,39.43
2022-12-14T07:03:00.104Z,32.13
2022-12-14T07:05:26.660Z,39.53
2022-12-14T07:07:53.276Z,50.03
2022-12-14T07:10:19.785Z,49.63
2022-12-14T07:12:46.290Z,44.27
2022-12-14T07:15:12.816Z,38.47
2022-12-14T07:17:39.318Z,36.50
2022-12-14T07:20:07.369Z,39.70
2022-12-14T07:22:35.169Z,33.83
2022-12-14T07:25:02.175Z,41.33
2022-12-14T07:27:29.140Z,38.30
2022-12-14T07:29:56.198Z,40.00
2022-12-14T07:32:23.106Z,39.87
2022-12-14T07:34:49.651Z,39.40
2022-12-14T07:37:16.303Z,38.20
2022-12-14T07:39:42.972Z,34.30
2022-12-14T07:42:09.609Z,39.93
2022-12-14T07:44:36.163Z,40.63
2022-12-14T07:47:02.665Z,40.57
2022-12-14T07:49:29.442Z,34.03
2022-12-14T07:51:55.963Z,38.03
2022-12-14T07:54:22.534Z,34.23
2022-12-14T07:56:49.694Z,48.40
2022-12-14T07:59:16.433Z,40.47
2022-12-14T08:01:43.805Z,38.07
2022-12-14T08:04:13.464Z,34.73
2022-12-14T08:06:41.586Z,31.87
2022-12-14T08:09:10.617Z,30.80
2022-12-14T08:11:37.586Z,35.00
2022-12-14T08:14:07.199Z,39.00
2022-12-14T08:16:34.165Z,36.37
2022-12-14T08:19:01.553Z,33.03
2022-12-14T08:21:29.346Z,37.77
2022-12-14T08:23:57.077Z,37.10
2022-12-14T08:26:31.542Z,38.80
2022-12-14T08:29:00.250Z,35.53
2022-12-14T08:31:28.153Z,42.37
2022-12-14T08:33:55.370Z,35.83
2022-12-14T08:36:28.455Z,53.53
2022-12-14T08:39:03.912Z,51.90
2022-12-14T08:41:30.865Z,32.00
2022-12-14T08:43:59.632Z,36.40
2022-12-14T08:46:27.835Z,34.03
2022-12-14T08:48:55.941Z,34.17
2022-12-14T08:51:24.194Z,27.03
2022-12-14T08:53:52.000Z,31.70
2022-12-14T08:56:21.016Z,27.70
2022-12-14T08:58:47.728Z,26.77
2022-12-14T09:01:17.401Z,31.73
2022-12-14T09:03:45.719Z,25.83
2022-12-14T09:06:18.413Z,27.90
2022-12-14T09:08:45.004Z,29.47
2022-12-14T09:11:13.366Z,29.83
2022-12-14T09:13:40.312Z,22.33
2022-12-14T09:16:07.366Z,25.17
2022-12-14T09:18:37.082Z,27.73
2022-12-14T09:21:03.957Z,24.50
2022-12-14T09:23:32.547Z,41.67
2022-12-14T09:26:00.449Z,34.27
2022-12-14T09:28:27.877Z,23.00
2022-12-14T09:31:00.255Z,24.53
2022-12-14T09:33:28.987Z,24.27
2022-12-14T09:36:17.953Z,27.27
2022-12-14T09:38:51.082Z,27.33
2022-12-14T09:41:28.665Z,25.20
2022-12-14T09:44:25.036Z,27.50
2022-12-14T09:47:17.088Z,27.67
2022-12-14T09:49:51.350Z,24.70
2022-12-14T09:52:29.797Z,25.93
2022-12-14T09:54:58.813Z,23.70
2022-12-14T09:57:29.606Z,31.63
2022-12-14T09:59:56.687Z,27.13
2022-12-14T10:03:07.233Z,26.03
2022-12-14T10:05:58.743Z,22.70
2022-12-14T10:08:33.435Z,22.60
2022-12-14T10:11:30.901Z,23.63
2022-12-14T10:14:20.963Z,27.40
2022-12-14T10:17:13.542Z,23.17
2022-12-14T10:20:22.019Z,22.23
2022-12-14T10:22:55.130Z,23.97
2022-12-14T10:25:34.134Z,22.03
2022-12-14T10:28:11.989Z,25.10
2022-12-14T10:30:42.027Z,23.37
2022-12-14T10:33:16.677Z,23.80
2022-12-14T10:35:55.175Z,27.43
2022-12-14T10:38:41.478Z,22.60
2022-12-14T10:41:29.728Z,23.20
2022-12-14T10:44:08.855Z,19.93
2022-12-14T10:47:01.834Z,21.40
2022-12-14T10:49:50.653Z,21.20
2022-12-14T10:52:21.854Z,26.47
2022-12-14T10:55:06.231Z,22.07
2022-12-14T10:57:32.750Z,22.07
2022-12-14T11:00:09.444Z,19.67
2022-12-14T11:02:44.034Z,20.13
2022-12-14T11:05:37.168Z,23.37
2022-12-14T11:08:08.160Z,21.20
2022-12-14T11:10:37.008Z,27.67
2022-12-14T11:13:21.624Z,22.80
2022-12-14T11:15:51.122Z,23.67
2022-12-14T11:18:17.731Z,21.73
2022-12-14T11:20:56.651Z,22.20
2022-12-14T11:23:28.940Z,19.97
2022-12-14T11:26:00.982Z,18.83
2022-12-14T11:28:35.974Z,19.50
2022-12-14T11:31:12.832Z,20.53
2022-12-14T11:33:44.620Z,21.23
2022-12-14T11:36:35.117Z,23.67
2022-12-14T11:39:06.809Z,22.57
2022-12-14T11:41:38.918Z,19.60
2022-12-14T11:44:22.397Z,18.57
2022-12-14T11:47:01.412Z,21.10
2022-12-14T11:49:35.034Z,25.83
2022-12-14T11:52:10.730Z,19.67
2022-12-14T11:54:40.141Z,20.03
2022-12-14T11:57:07.264Z,19.40
2022-12-14T11:59:50.105Z,20.40
2022-12-14T12:02:31.036Z,18.53
2022-12-14T12:05:11.588Z,18.07
2022-12-14T12:07:44.992Z,21.70
2022-12-14T12:10:17.246Z,19.30
2022-12-14T12:12:52.425Z,22.77
2022-12-14T12:15:29.537Z,24.20
2022-12-14T12:18:19.862Z,22.67
2022-12-14T12:21:03.274Z,25.07
2022-12-14T12:23:38.009Z,22.83
2022-12-14T12:26:22.616Z,23.07
2022-12-14T12:29:00.279Z,20.43
2022-12-14T12:31:34.781Z,21.60
2022-12-14T12:34:10.141Z,23.50
2022-12-14T12:36:37.192Z,21.77
2022-12-14T12:39:15.649Z,21.67
2022-12-14T12:42:05.222Z,19.60
2022-12-14T12:44:50.680Z,22.60
2022-12-14T12:47:33.391Z,22.97
2022-12-14T12:50:14.254Z,19.33
2022-12-14T12:52:57.764Z,29.10
2022-12-14T12:55:29.759Z,39.10
2022-12-14T12:57:59.549Z,23.53
2022-12-14T13:00:28.004Z,36.30
2022-12-14T13:03:00.607Z,21.97
2022-12-14T13:05:46.297Z,26.17
2022-12-14T13:08:27.583Z,22.20
2022-12-14T13:11:24.977Z,22.93
2022-12-14T13:13:52.099Z,21.63
2022-12-14T13:16:29.725Z,17.67
2022-12-14T13:19:18.951Z,21.77
2022-12-14T13:21:52.082Z,19.13
2022-12-14T13:24:21.796Z,23.33
2022-12-14T13:27:17.446Z,37.90
2022-12-14T13:30:11.360Z,23.77
2022-12-14T13:32:52.074Z,23.13
2022-12-14T13:35:50.915Z,21.57
2022-12-14T13:38:45.849Z,24.43
2022-12-14T13:41:28.158Z,25.27
2022-12-14T13:44:30.941Z,29.70
2022-12-14T13:47:03.635Z,22.20
2022-12-14T13:49:32.296Z,22.33
2022-12-14T13:52:00.130Z,28.73
2022-12-14T13:54:32.679Z,22.90
2022-12-14T13:57:10.666Z,26.33
2022-12-14T13:59:41.798Z,23.23
2022-12-14T14:02:28.475Z,24.53
2022-12-14T14:05:18.790Z,26.40
2022-12-14T14:07:53.702Z,23.80
2022-12-14T14:10:40.509Z,24.33
2022-12-14T14:13:27.190Z,23.17
2022-12-14T14:18:53.034Z,31.03
2022-12-14T14:21:22.472Z,45.60
2022-12-14T14:24:06.531Z,35.17
2022-12-14T14:26:36.699Z,25.70
2022-12-14T14:29:28.565Z,34.97
2022-12-14T14:32:26.645Z,29.63
2022-12-14T14:34:54.116Z,32.97
2022-12-14T14:37:21.653Z,32.93
2022-12-14T14:40:16.847Z,44.60
2022-12-14T14:42:53.026Z,49.07
2022-12-14T14:45:40.115Z,55.60
2022-12-14T14:48:39.923Z,49.83
2022-12-14T14:51:26.554Z,51.53
2022-12-14T14:54:44.781Z,50.30
2022-12-14T14:57:35.379Z,42.57
2022-12-14T15:00:04.072Z,41.87
2022-12-14T15:02:43.015Z,46.30
2022-12-14T15:05:42.212Z,38.93
2022-12-14T15:08:28.629Z,37.00
2022-12-14T15:10:56.158Z,34.03
2022-12-14T15:13:30.093Z,40.50
2022-12-14T15:15:57.065Z,45.30
2022-12-14T15:18:26.512Z,43.13
2022-12-14T15:20:57.936Z,38.90
2022-12-14T15:23:25.810Z,37.53
2022-12-14T15:26:00.727Z,40.10
2022-12-14T15:28:29.393Z,32.43
2022-12-14T15:30:59.066Z,31.23
2022-12-14T15:33:35.699Z,33.60
2022-12-14T15:36:26.398Z,28.67
2022-12-14T15:38:56.603Z,29.23
2022-12-14T15:41:25.523Z,29.40
2022-12-14T15:43:59.371Z,27.50
2022-12-14T15:46:30.029Z,34.80
2022-12-14T15:49:05.690Z,30.07
2022-12-14T15:51:44.261Z,29.00
2022-12-14T15:54:24.280Z,23.73
2022-12-14T15:56:54.127Z,31.67
2022-12-14T15:59:42.227Z,28.93
2022-12-14T16:02:31.004Z,28.77
2022-12-14T16:05:01.260Z,33.57
2022-12-14T16:07:38.546Z,29.80
2022-12-14T16:10:28.767Z,31.00
2022-12-14T16:13:02.330Z,30.93
2022-12-14T16:15:29.733Z,46.53
2022-12-14T16:18:02.327Z,95.23
2022-12-14T16:20:36.027Z,42.37
2022-12-14T16:23:06.467Z,35.63
2022-12-14T16:25:37.745Z,29.40
2022-12-14T16:28:27.941Z,30.67
2022-12-14T16:31:19.383Z,29.50
2022-12-14T16:33:50.183Z,78.03
2022-12-14T16:36:25.601Z,39.17
2022-12-14T16:39:01.567Z,29.60
2022-12-14T16:41:41.551Z,34.10
2022-12-14T16:44:20.380Z,29.17
2022-12-14T16:47:23.422Z,30.87
2022-12-14T16:49:50.723Z,24.93
2022-12-14T16:52:26.298Z,27.70
2022-12-14T16:55:12.088Z,27.93
2022-12-14T16:57:52.742Z,31.23
2022-12-14T17:00:27.354Z,30.63
2022-12-14T17:02:58.278Z,34.13
2022-12-14T17:05:30.130Z,28.27
2022-12-14T17:07:57.291Z,31.70
2022-12-14T17:10:25.759Z,34.43
2022-12-14T17:12:56.340Z,32.07
2022-12-14T17:15:25.442Z,39.30
2022-12-14T17:17:54.817Z,35.40
2022-12-14T17:20:23.072Z,33.00
2022-12-14T17:22:50.110Z,31.47
2022-12-14T17:25:17.325Z,33.17
2022-12-14T17:27:45.774Z,32.50
2022-12-14T17:30:17.893Z,34.73
2022-12-14T17:32:44.653Z,37.57
2022-12-14T17:35:20.450Z,38.70
2022-12-14T17:37:47.543Z,50.50
2022-12-14T17:40:16.608Z,36.70
2022-12-14T17:42:47.421Z,32.77
2022-12-14T17:45:28.563Z,38.07
2022-12-14T17:47:55.533Z,37.80
2022-12-14T17:50:22.351Z,39.03
2022-12-14T17:52:50.459Z,31.43
2022-12-14T17:55:23.114Z,36.93
2022-12-14T17:57:51.169Z,30.47
2022-12-14T18:00:43.406Z,33.23
2022-12-14T18:03:12.121Z,35.13
2022-12-14T18:05:46.584Z,35.63
2022-12-14T18:08:15.565Z,37.33
2022-12-14T18:10:42.138Z,32.37
2022-12-14T18:13:11.681Z,32.60
2022-12-14T18:15:41.649Z,35.73
2022-12-14T18:18:08.952Z,36.27
2022-12-14T18:20:36.781Z,33.57
2022-12-14T18:23:03.621Z,41.20
2022-12-14T18:25:35.686Z,41.13
2022-12-14T18:28:04.833Z,43.07
2022-12-14T18:30:40.714Z,38.30
2022-12-14T18:33:17.990Z,39.30
2022-12-14T18:35:55.540Z,34.50
2022-12-14T18:38:22.747Z,39.53
2022-12-14T18:40:53.238Z,35.57
2022-12-14T18:43:26.555Z,32.40
2022-12-14T18:45:56.972Z,41.30
2022-12-14T18:48:25.392Z,37.73
2022-12-14T18:50:54.429Z,37.50
2022-12-14T18:53:26.322Z,36.73
2022-12-14T18:56:43.368Z,39.83
2022-12-14T18:59:09.842Z,35.67
2022-12-14T19:01:36.400Z,36.63
2022-12-14T19:04:09.207Z,34.33
2022-12-14T19:06:44.925Z,33.60
2022-12-14T19:09:13.088Z,37.57
2022-12-14T19:17:58.640Z,34.17
2022-12-14T19:20:29.321Z,36.33
2022-12-14T19:22:55.924Z,38.47
2022-12-14T19:25:23.476Z,35.97
2022-12-14T19:30:40.163Z,36.20
2022-12-14T19:33:06.643Z,36.57
2022-12-14T19:35:33.168Z,36.10
2022-12-14T19:37:59.778Z,35.20
2022-12-14T19:40:26.653Z,38.53
2022-12-14T19:42:53.349Z,36.67
2022-12-14T19:45:22.924Z,34.97
2022-12-14T19:47:49.613Z,39.53
2022-12-14T19:50:16.631Z,38.63
2022-12-14T19:52:43.630Z,45.13
2022-12-14T19:55:13.992Z,40.37
2022-12-14T19:57:40.847Z,41.43
2022-12-14T20:00:11.969Z,41.77
2022-12-14T20:02:38.765Z,44.50
2022-12-14T20:05:06.318Z,41.43
2022-12-14T20:07:33.084Z,39.80
2022-12-14T20:09:59.601Z,39.40
2022-12-14T20:12:26.137Z,38.83
2022-12-14T20:14:52.791Z,37.57
2022-12-14T20:17:19.358Z,38.70
2022-12-14T20:19:45.997Z,42.90
2022-12-14T20:22:14.895Z,38.47
2022-12-14T20:24:42.653Z,35.60
2022-12-14T20:27:09.222Z,37.80
2022-12-14T20:29:36.920Z,42.03
2022-12-14T20:32:03.530Z,40.13
2022-12-14T20:34:30.853Z,58.57
2022-12-14T20:36:57.430Z,53.10
2022-12-14T20:39:23.938Z,40.63
2022-12-14T20:41:50.582Z,37.93
2022-12-14T20:44:18.213Z,38.53
2022-12-14T20:46:46.409Z,41.80
2022-12-14T20:49:18.721Z,38.63
2022-12-14T20:51:46.354Z,40.53
2022-12-14T20:54:18.926Z,37.77
2022-12-14T20:56:45.596Z,43.97
2022-12-14T20:59:16.153Z,41.70
2022-12-14T21:01:43.349Z,39.50
2022-12-14T21:04:12.078Z,40.50
2022-12-14T21:06:42.117Z,40.53
2022-12-14T21:09:10.293Z,38.97
2022-12-14T21:12:01.747Z,40.97
2022-12-14T21:14:32.440Z,40.53
2022-12-14T21:16:59.846Z,41.93
2022-12-14T21:19:28.486Z,40.23
2022-12-14T21:21:55.177Z,38.00
2022-12-14T21:25:00.551Z,37.67
2022-12-14T21:27:15.761Z,44.33
2022-12-14T21:29:42.216Z,34.73
2022-12-14T21:32:08.959Z,39.27
2022-12-14T21:34:35.503Z,38.60
2022-12-14T21:37:02.039Z,40.33
2022-12-14T21:39:28.626Z,44.13
2022-12-14T21:42:10.448Z,38.63
2022-12-14T21:44:39.798Z,37.20
2022-12-14T21:47:09.535Z,36.73
2022-12-14T21:49:39.517Z,39.70
2022-12-14T21:52:07.940Z,38.60
2022-12-14T21:54:36.108Z,40.67
2022-12-14T21:57:21.593Z,39.23
2022-12-14T21:59:48.184Z,43.80
2022-12-14T22:02:19.337Z,45.87
2022-12-14T22:04:46.835Z,39.97
2022-12-14T22:07:18.818Z,43.47
2022-12-14T22:09:49.473Z,71.90
2022-12-14T22:12:17.905Z,41.13
2022-12-14T22:14:44.358Z,34.23
2022-12-14T22:17:12.617Z,36.20
2022-12-14T22:19:39.111Z,41.57
2022-12-14T22:22:05.695Z,33.00
2022-12-14T22:24:33.197Z,39.13
2022-12-14T22:26:59.732Z,36.70
2022-12-14T22:29:26.341Z,38.00
2022-12-14T22:31:53.210Z,35.87
2022-12-14T22:34:22.834Z,38.73
2022-12-14T22:36:51.084Z,35.53
2022-12-14T22:39:18.611Z,36.70
2022-12-14T22:41:46.226Z,37.00
2022-12-14T22:44:13.125Z,41.60
2022-12-14T22:46:40.802Z,33.10
2022-12-14T22:49:07.307Z,35.13
2022-12-14T22:51:33.865Z,38.70
2022-12-14T22:54:00.397Z,33.13
2022-12-14T22:56:37.333Z,37.07
2022-12-14T22:59:09.545Z,33.70
2022-12-14T23:01:37.603Z,38.43
2022-12-14T23:04:07.047Z,35.60
2022-12-14T23:06:33.991Z,38.13
2022-12-14T23:09:19.027Z,36.33
2022-12-14T23:12:06.549Z,35.17
2022-12-14T23:14:53.983Z,33.93
2022-12-14T23:17:38.884Z,37.63
2022-12-14T23:20:24.905Z,34.20
2022-12-14T23:23:09.709Z,36.13
2022-12-14T23:25:54.877Z,38.97
2022-12-14T23:28:39.868Z,37.00
2022-12-14T23:31:24.989Z,28.07
2022-12-14T23:34:10.284Z,33.23
2022-12-14T23:36:55.159Z,32.90
2022-12-14T23:39:40.070Z,35.60
2022-12-14T23:42:24.999Z,32.60
2022-12-14T23:45:10.048Z,30.77
2022-12-14T23:47:54.873Z,32.60
2022-12-14T23:50:39.882Z,39.33
2022-12-14T23:53:26.446Z,32.97
2022-12-14T23:56:11.586Z,31.00
2022-12-14T23:58:56.546Z,35.83
